createdAt,value
2022-08-20T00:02:41.730Z,101491.44
2022-08-20T00:08:06.823Z,101500.06
2022-08-20T00:13:35.651Z,101495.34
2022-08-20T00:18:57.346Z,101504.84
2022-08-20T00:24:19.103Z,101499.50
2022-08-20T00:29:40.839Z,101512.66
2022-08-20T00:35:02.508Z,101506.22
2022-08-20T00:40:30.971Z,101508.16
2022-08-20T00:45:56.518Z,101517.97
2022-08-20T00:51:33.914Z,101500.66
2022-08-20T00:57:23.008Z,101513.75
2022-08-20T01:02:46.672Z,101510.38
2022-08-20T01:08:09.390Z,101507.59
2022-08-20T01:13:31.811Z,101507.88
2022-08-20T01:18:54.606Z,101511.50
2022-08-20T01:24:34.811Z,101514.28
2022-08-20T01:29:57.106Z,101514.56
2022-08-20T01:35:23.257Z,101518.19
2022-08-20T01:41:06.632Z,101522.97
2022-08-20T01:46:32.955Z,101524.91
2022-08-20T01:52:06.245Z,101520.44
2022-08-20T01:57:29.413Z,101517.91
2022-08-20T02:02:51.557Z,101520.69
2022-08-20T02:08:13.260Z,101517.91
2022-08-20T02:13:35.096Z,101524.59
2022-08-20T02:19:01.299Z,101525.72
2022-08-20T02:24:23.098Z,101526.81
2022-08-20T02:29:46.801Z,101525.72
2022-08-20T02:35:12.188Z,101516.78
2022-08-20T02:40:34.140Z,101527.94
2022-08-20T02:45:55.850Z,101526.28
2022-08-20T02:51:17.590Z,101523.47
2022-08-20T02:56:52.386Z,101520.69
2022-08-20T03:02:15.553Z,101526.28
2022-08-20T03:07:48.290Z,101524.59
2022-08-20T03:13:13.722Z,101525.69
2022-08-20T03:18:42.755Z,101524.00
2022-08-20T03:24:05.716Z,101514.75
2022-08-20T03:29:27.415Z,101513.06
2022-08-20T03:34:49.103Z,101515.03
2022-08-20T03:40:15.700Z,101530.13
2022-08-20T03:45:39.614Z,101532.09
2022-08-20T03:51:01.418Z,101543.25
2022-08-20T03:56:23.370Z,101545.19
2022-08-20T04:01:46.741Z,101551.91
2022-08-20T04:07:25.981Z,101553.59
2022-08-20T04:12:52.960Z,101553.28
2022-08-20T04:18:20.765Z,101556.91
2022-08-20T04:23:42.464Z,101564.19
2022-08-20T04:29:04.724Z,101562.50
2022-08-20T04:34:26.492Z,101573.13
2022-08-20T04:40:09.715Z,101567.53
2022-08-20T04:45:32.953Z,101556.34
2022-08-20T04:50:56.168Z,101569.22
2022-08-20T04:56:26.142Z,101582.59
2022-08-20T05:01:47.810Z,101581.75
2022-08-20T05:07:11.385Z,101594.88
2022-08-20T05:12:33.091Z,101590.41
2022-08-20T05:17:58.034Z,101588.44
2022-08-20T05:23:21.104Z,101595.13
2022-08-20T05:28:58.065Z,101610.25
2022-08-20T05:34:20.609Z,101616.06
2022-08-20T05:39:42.497Z,101617.75
2022-08-20T05:45:11.061Z,101618.88
2022-08-20T05:50:33.378Z,101627.25
2022-08-20T05:55:55.077Z,101630.91
2022-08-20T06:01:16.795Z,101632.84
2022-08-20T06:06:46.122Z,101635.63
2022-08-20T06:12:09.602Z,101633.94
2022-08-20T06:17:34.880Z,101643.44
2022-08-20T06:23:01.250Z,101638.72
2022-08-20T06:28:23.666Z,101631.44
2022-08-20T06:33:45.474Z,101632.25
2022-08-20T06:39:07.173Z,101629.47
2022-08-20T06:44:29.192Z,101632.84
2022-08-20T06:49:50.909Z,101645.72
2022-08-20T06:55:15.265Z,101641.22
2022-08-20T07:00:39.310Z,101646.81
2022-08-20T07:06:01.075Z,101652.41
2022-08-20T07:11:27.799Z,101663.56
2022-08-20T07:16:50.652Z,101677.53
2022-08-20T07:22:14.932Z,101669.16
2022-08-20T07:27:36.718Z,101686.78
2022-08-20T07:32:58.594Z,101674.75
2022-08-20T07:38:24.562Z,101683.72
2022-08-20T07:43:47.574Z,101682.63
2022-08-20T07:49:10.102Z,101689.38
2022-08-20T07:54:32.045Z,101687.72
2022-08-20T07:59:53.981Z,101685.81
2022-08-20T08:05:16.349Z,101689.50
2022-08-20T08:10:40.901Z,101688.16
2022-08-20T08:16:06.409Z,101688.19
2022-08-20T08:21:30.116Z,101697.16
2022-08-20T08:26:52.628Z,101699.72
2022-08-20T08:32:14.333Z,101697.63
2022-08-20T08:37:38.036Z,101701.88
2022-08-20T08:43:04.269Z,101707.50
2022-08-20T08:48:32.613Z,101701.66
2022-08-20T08:53:55.914Z,101701.69
2022-08-20T08:59:22.621Z,101707.03
2022-08-20T09:04:44.861Z,101705.91
2022-08-20T09:10:07.397Z,101713.75
2022-08-20T09:15:29.074Z,101718.25
2022-08-20T09:20:50.819Z,101710.44
2022-08-20T09:26:13.711Z,101699.81
2022-08-20T09:31:35.560Z,101703.44
2022-08-20T09:36:59.474Z,101704.31
2022-08-20T09:42:30.960Z,101700.94
2022-08-20T09:48:10.309Z,101700.09
2022-08-20T09:53:32.753Z,101695.31
2022-08-20T09:58:57.242Z,101695.28
2022-08-20T10:04:22.155Z,101698.88
2022-08-20T10:09:44.022Z,101703.34
2022-08-20T10:15:06.162Z,101703.31
2022-08-20T10:20:27.879Z,101692.13
2022-08-20T10:25:49.546Z,101702.13
2022-08-20T10:31:12.513Z,101697.69
2022-08-20T10:36:34.265Z,101694.88
2022-08-20T10:41:55.958Z,101701.31
2022-08-20T10:47:20.620Z,101695.72
2022-08-20T10:52:42.443Z,101694.03
2022-08-20T10:58:06.296Z,101686.22
2022-08-20T11:03:28.076Z,101687.59
2022-08-20T11:08:49.756Z,101692.09
2022-08-20T11:14:13.180Z,101684.53
2022-08-20T11:19:43.050Z,101689.28
2022-08-20T11:25:06.717Z,101687.59
2022-08-20T11:30:32.275Z,101687.03
2022-08-20T11:35:53.960Z,101694.88
2022-08-20T11:41:15.629Z,101691.81
2022-08-20T11:46:37.598Z,101680.94
2022-08-20T11:51:59.284Z,101696.00
2022-08-20T11:57:26.602Z,101692.41
2022-08-20T12:02:51.806Z,101687.09
2022-08-20T12:08:25.132Z,101687.69
2022-08-20T12:13:49.602Z,101678.19
2022-08-20T12:19:11.387Z,101686.00
2022-08-20T12:24:33.220Z,101682.09
2022-08-20T12:29:57.207Z,101690.41
2022-08-20T12:35:20.132Z,101677.53
2022-08-20T12:40:41.900Z,101697.69
2022-08-20T12:46:03.865Z,101698.28
2022-08-20T12:51:25.633Z,101686.00
2022-08-20T12:56:48.203Z,101680.41
2022-08-20T13:02:14.363Z,101681.22
2022-08-20T13:07:42.038Z,101680.94
2022-08-20T13:13:04.194Z,101683.72
2022-08-20T13:18:26.013Z,101682.31
2022-08-20T13:23:47.720Z,101683.41
2022-08-20T13:29:09.405Z,101678.66
2022-08-20T13:34:31.210Z,101674.16
2022-08-20T13:39:54.546Z,101685.34
2022-08-20T13:45:16.439Z,101684.53
2022-08-20T13:50:39.070Z,101670.81
2022-08-20T13:56:00.846Z,101677.25
2022-08-20T14:01:22.599Z,101683.69
2022-08-20T14:06:44.351Z,101678.09
2022-08-20T14:12:06.734Z,101676.13
2022-08-20T14:17:32.188Z,101666.34
2022-08-20T14:22:53.978Z,101666.34
2022-08-20T14:28:22.066Z,101675.31
2022-08-20T14:33:44.799Z,101668.91
2022-08-20T14:39:06.649Z,101671.44
2022-08-20T14:44:29.935Z,101656.34
2022-08-20T14:49:53.465Z,101665.00
2022-08-20T14:55:19.192Z,101674.50
2022-08-20T15:00:42.314Z,101671.94
2022-08-20T15:06:04.388Z,101667.22
2022-08-20T15:11:32.393Z,101654.06
2022-08-20T15:16:56.321Z,101658.56
2022-08-20T15:22:18.691Z,101646.53
2022-08-20T15:27:40.796Z,101653.81
2022-08-20T15:33:03.236Z,101664.41
2022-08-20T15:38:25.045Z,101656.28
2022-08-20T15:43:46.906Z,101657.38
2022-08-20T15:49:12.606Z,101661.03
2022-08-20T15:54:35.115Z,101658.78
2022-08-20T15:59:56.773Z,101673.88
2022-08-20T16:05:28.090Z,101670.81
2022-08-20T16:11:15.407Z,101668.03
2022-08-20T16:16:46.694Z,101664.38
2022-08-20T16:22:13.297Z,101666.34
2022-08-20T16:27:40.745Z,101657.94
2022-08-20T16:33:25.780Z,101665.22
2022-08-20T16:38:57.262Z,101670.81
2022-08-20T16:44:33.740Z,101664.66
2022-08-20T16:50:13.538Z,101668.03
2022-08-20T16:55:35.256Z,101666.34
2022-08-20T17:01:25.513Z,101662.47
2022-08-20T17:06:50.455Z,101664.66
2022-08-20T17:12:28.046Z,101665.78
2022-08-20T17:17:49.837Z,101673.03
2022-08-20T17:23:18.118Z,101669.66
2022-08-20T17:28:50.203Z,101671.88
2022-08-20T17:34:20.753Z,101670.47
2022-08-20T17:39:48.500Z,101672.94
2022-08-20T17:45:18.548Z,101680.75
2022-08-20T17:50:42.366Z,101677.88
2022-08-20T17:56:23.603Z,101676.19
2022-08-20T18:01:45.356Z,101683.16
2022-08-20T18:07:06.982Z,101678.97
2022-08-20T18:12:44.845Z,101682.88
2022-08-20T18:18:26.282Z,101682.88
2022-08-20T18:23:53.100Z,101683.38
2022-08-20T18:29:23.837Z,101675.59
2022-08-20T18:34:45.724Z,101684.22
2022-08-20T18:40:17.186Z,101674.19
2022-08-20T18:45:39.178Z,101671.03
2022-08-20T18:51:07.881Z,101680.53
2022-08-20T18:56:42.435Z,101687.78
2022-08-20T19:02:19.814Z,101687.50
2022-08-20T19:07:50.635Z,101685.81
2022-08-20T19:13:37.013Z,101691.41
2022-08-20T19:18:58.582Z,101706.16
2022-08-20T19:24:26.077Z,101704.78
2022-08-20T19:29:50.103Z,101704.47
2022-08-20T19:35:18.716Z,101708.38
2022-08-20T19:40:43.676Z,101710.59
2022-08-20T19:46:08.550Z,101710.03
2022-08-20T19:51:44.161Z,101713.66
2022-08-20T19:57:11.138Z,101713.06
2022-08-20T20:02:35.276Z,101704.44
2022-08-20T20:07:58.530Z,101699.41
2022-08-20T20:13:30.869Z,101710.94
2022-08-20T20:19:22.627Z,101706.44
2022-08-20T20:24:44.214Z,101713.16
2022-08-20T20:30:10.683Z,101708.38
2022-08-20T20:35:34.957Z,101690.78
2022-08-20T20:41:02.606Z,101693.81
2022-08-20T20:46:28.857Z,101691.03
2022-08-20T20:51:55.570Z,101698.59
2022-08-20T20:57:37.822Z,101686.81
2022-08-20T21:03:02.659Z,101688.78
2022-08-20T21:08:25.759Z,101687.94
2022-08-20T21:13:47.579Z,101695.47
2022-08-20T21:19:12.293Z,101691.00
2022-08-20T21:24:34.024Z,101685.41
2022-08-20T21:29:55.946Z,101694.91
2022-08-20T21:35:18.179Z,101707.19
2022-08-20T21:40:39.994Z,101702.44
2022-08-20T21:46:04.205Z,101698.78
2022-08-20T21:51:27.318Z,101694.31
2022-08-20T21:56:54.512Z,101691.53
2022-08-20T22:02:17.940Z,101689.81
2022-08-20T22:07:40.905Z,101685.34
2022-08-20T22:13:03.005Z,101689.25
2022-08-20T22:18:25.147Z,101692.03
2022-08-20T22:23:47.550Z,101686.44
2022-08-20T22:29:11.316Z,101690.09
2022-08-20T22:34:35.285Z,101689.25
2022-08-20T22:39:57.217Z,101685.91
2022-08-20T22:45:19.914Z,101687.81
2022-08-20T22:50:41.785Z,101687.56
2022-08-20T22:56:03.707Z,101683.09
2022-08-20T23:01:26.808Z,101675.81
2022-08-20T23:06:48.747Z,101674.13
2022-08-20T23:12:10.813Z,101674.13
2022-08-20T23:17:33.472Z,101675.22
2022-08-20T23:22:55.177Z,101666.84
2022-08-20T23:28:22.405Z,101664.06
2022-08-20T23:33:45.008Z,101666.84
2022-08-20T23:39:07.301Z,101664.31
2022-08-20T23:44:30.294Z,101671.84
2022-08-20T23:49:52.038Z,101667.38
2022-08-20T23:55:13.825Z,101670.16
